Time;durP1;ratioP1;P1;durP2;ratioP2;P2;SDS_P1;SDS_P2;PMS_P1;PMS_P2;Temp;Humidity;BMP_temperature;BMP_pressure;BME280_temperature;BME280_humidity;BME280_pressure;Samples;Min_cycle;Max_cycle;Signal;HPM_P1;HPM_P2
2023/07/31 17:52:05;;;;;;;1.70;1.60;;;24.20;99.70;;;;;;4942790;23;20986;-85
2023/07/31 17:54:32;;;;;;;1.80;1.70;;;24.20;99.70;;;;;;4941274;29;20446;-86
2023/07/31 17:56:59;;;;;;;2.17;1.97;;;24.20;99.60;;;;;;4957397;29;20457;-85
2023/07/31 17:59:25;;;;;;;2.00;1.80;;;24.20;99.80;;;;;;4957200;29;20454;-87
2023/07/31 18:01:52;;;;;;;2.27;2.07;;;24.20;99.60;;;;;;4964028;28;20537;-85
2023/07/31 18:04:19;;;;;;;2.80;1.60;;;24.20;99.60;;;;;;4957161;29;20436;-85
2023/07/31 18:06:46;;;;;;;3.97;2.13;;;24.20;99.60;;;;;;4942963;29;20468;-85
2023/07/31 18:09:14;;;;;;;2.63;2.43;;;24.30;99.60;;;;;;4937854;29;20544;-85
2023/07/31 18:11:41;;;;;;;2.20;2.00;;;24.30;99.60;;;;;;4937869;29;20447;-86
2023/07/31 18:14:07;;;;;;;1.80;1.70;;;24.30;99.60;;;;;;4937947;29;20460;-85
2023/07/31 18:16:34;;;;;;;2.43;1.93;;;24.20;99.50;;;;;;4937617;29;20448;-85
2023/07/31 18:19:01;;;;;;;2.53;1.90;;;24.20;99.60;;;;;;4937653;29;20458;-86
2023/07/31 18:21:28;;;;;;;2.87;2.40;;;24.20;99.50;;;;;;4937707;29;20493;-86
2023/07/31 18:23:55;;;;;;;2.20;2.00;;;24.20;99.50;;;;;;4937482;29;20452;-86
2023/07/31 18:26:23;;;;;;;2.53;1.73;;;24.20;99.50;;;;;;4937172;29;20450;-85
2023/07/31 18:28:50;;;;;;;2.17;1.77;;;24.30;99.60;;;;;;4937536;29;20524;-86
2023/07/31 18:31:17;;;;;;;2.10;2.00;;;24.20;99.40;;;;;;4937240;29;20946;-85
2023/07/31 18:33:44;;;;;;;1.70;1.50;;;24.20;99.50;;;;;;4937896;29;20449;-90
2023/07/31 18:36:10;;;;;;;2.07;1.83;;;24.20;99.50;;;;;;4937420;29;20471;-90
2023/07/31 18:38:37;;;;;;;1.60;1.50;;;24.20;99.90;;;;;;4937818;29;20454;-95
2023/07/31 18:41:06;;;;;;;2.40;2.10;;;24.20;99.50;;;;;;4937038;29;20496;-88
2023/07/31 18:43:35;;;;;;;2.00;1.83;;;24.20;99.60;;;;;;4937950;29;21007;-87
2023/07/31 18:46:03;;;;;;;5.50;2.37;;;24.20;99.60;;;;;;4937547;29;20516;-91
2023/07/31 18:48:30;;;;;;;2.20;1.57;;;24.20;99.50;;;;;;4937944;29;20516;-90
2023/07/31 18:50:57;;;;;;;2.43;1.57;;;24.20;99.50;;;;;;4937559;29;20531;-93
2023/07/31 18:53:24;;;;;;;2.70;1.97;;;24.40;99.70;;;;;;4937281;29;20489;-92
2023/07/31 18:55:52;;;;;;;2.20;1.77;;;24.30;99.60;;;;;;4938012;29;20444;-93
2023/07/31 18:58:19;;;;;;;2.83;1.50;;;24.30;99.60;;;;;;4936968;29;20475;-92
2023/07/31 19:00:47;;;;;;;1.80;1.70;;;24.30;99.50;;;;;;4937500;29;20579;-93
2023/07/31 19:03:15;;;;;;;2.47;1.97;;;24.30;99.50;;;;;;4937610;29;20444;-92
2023/07/31 19:05:42;;;;;;;3.00;1.90;;;24.30;99.50;;;;;;4937402;29;20523;-91
2023/07/31 19:08:09;;;;;;;1.70;1.60;;;24.30;99.50;;;;;;4937349;29;20933;-92
2023/07/31 19:10:37;;;;;;;1.70;1.60;;;24.30;99.40;;;;;;4937776;29;20454;-92
2023/07/31 19:13:05;;;;;;;2.67;1.57;;;24.30;99.40;;;;;;4937316;29;20950;-93
2023/07/31 19:15:32;;;;;;;1.47;1.37;;;24.30;99.60;;;;;;4937725;29;20933;-92
2023/07/31 19:18:00;;;;;;;2.47;1.43;;;24.40;99.60;;;;;;4937162;29;20443;-90
2023/07/31 19:20:27;;;;;;;1.73;1.63;;;24.40;99.60;;;;;;4937666;29;20877;-90
2023/07/31 19:22:54;;;;;;;2.17;1.97;;;24.30;99.50;;;;;;4936921;29;20444;-91
2023/07/31 19:25:21;;;;;;;1.80;1.43;;;24.30;99.70;;;;;;4937260;29;20584;-90
2023/07/31 19:27:48;;;;;;;1.53;1.43;;;24.30;99.70;;;;;;4936608;29;20517;-91
2023/07/31 19:30:15;;;;;;;2.07;1.50;;;24.40;99.70;;;;;;4936988;29;20549;-90
2023/07/31 19:32:41;;;;;;;1.87;1.43;;;24.30;99.50;;;;;;4936594;29;20459;-90
2023/07/31 19:35:12;;;;;;;1.53;1.43;;;24.40;99.60;;;;;;4936821;29;20469;-90
2023/07/31 19:37:39;;;;;;;1.50;1.40;;;24.40;99.70;;;;;;4937927;29;20442;-88
2023/07/31 19:40:07;;;;;;;1.30;1.20;;;24.40;99.80;;;;;;4936886;29;20451;-94
2023/07/31 19:42:35;;;;;;;1.50;1.40;;;24.40;99.70;;;;;;4936757;29;20522;-95
2023/07/31 19:45:02;;;;;;;3.03;1.37;;;24.40;99.70;;;;;;4936991;29;20456;-91
2023/07/31 19:47:29;;;;;;;1.93;1.37;;;24.40;99.90;;;;;;4937933;29;20449;-91
2023/07/31 19:49:56;;;;;;;1.80;1.70;;;24.40;99.70;;;;;;4936475;29;20499;-92
2023/07/31 19:52:25;;;;;;;2.00;1.80;;;24.40;99.60;;;;;;4936190;29;20825;-92
2023/07/31 19:54:52;;;;;;;1.73;1.43;;;24.30;99.50;;;;;;4937041;29;20454;-90
2023/07/31 19:57:18;;;;;;;2.70;1.20;;;24.30;99.50;;;;;;4936569;29;20453;-92
2023/07/31 19:59:45;;;;;;;1.50;1.40;;;24.30;99.50;;;;;;4936383;29;20449;-90
2023/07/31 20:02:12;;;;;;;2.07;1.40;;;24.30;99.50;;;;;;4936340;29;20843;-91
2023/07/31 20:04:39;;;;;;;1.50;1.23;;;24.30;99.50;;;;;;4939048;29;20470;-85
2023/07/31 20:07:06;;;;;;;2.33;1.53;;;24.30;99.70;;;;;;4936130;29;20617;-85
2023/07/31 20:09:35;;;;;;;6.53;1.43;;;24.30;99.90;;;;;;4937190;29;20472;-96
2023/07/31 20:12:02;;;;;;;5.77;1.47;;;24.30;99.90;;;;;;4936299;29;20516;-86
2023/07/31 20:14:29;;;;;;;2.00;1.83;;;24.40;99.80;;;;;;4936098;29;20441;-86
2023/07/31 20:16:55;;;;;;;1.30;1.10;;;24.30;99.80;;;;;;4936165;29;20444;-85
2023/07/31 20:19:22;;;;;;;1.60;1.40;;;24.30;99.80;;;;;;4936315;29;20511;-85
2023/07/31 20:21:49;;;;;;;1.30;1.10;;;24.30;99.80;;;;;;4935889;29;20491;-85
2023/07/31 20:24:16;;;;;;;6.93;1.63;;;24.30;99.90;;;;;;4936166;29;20445;-91
2023/07/31 20:26:44;;;;;;;1.50;1.40;;;24.20;99.60;;;;;;4936038;29;20451;-86
2023/07/31 20:29:11;;;;;;;1.30;1.17;;;24.30;99.70;;;;;;4935949;29;20446;-94
2023/07/31 20:31:39;;;;;;;1.87;1.40;;;24.30;99.70;;;;;;4936314;29;20959;-96
2023/07/31 20:34:07;;;;;;;1.30;1.03;;;24.30;99.70;;;;;;4936023;29;20891;-88
2023/07/31 20:36:34;;;;;;;3.10;1.30;;;24.30;99.90;;;;;;4935936;29;20459;-85
2023/07/31 20:39:02;;;;;;;1.53;1.13;;;24.30;99.90;;;;;;4935922;29;20457;-86
2023/07/31 20:41:29;;;;;;;1.43;1.33;;;24.30;99.90;;;;;;4936167;29;20534;-95
2023/07/31 20:43:57;;;;;;;1.97;1.50;;;24.30;99.90;;;;;;4936328;29;20449;-95
2023/07/31 20:46:24;;;;;;;1.43;1.10;;;24.30;99.90;;;;;;4935990;29;20549;-88
2023/07/31 20:48:50;;;;;;;1.30;1.20;;;24.30;99.80;;;;;;4935457;29;20463;-87
2023/07/31 20:51:17;;;;;;;2.50;1.20;;;24.30;99.90;;;;;;4935826;29;20967;-87
2023/07/31 20:53:44;;;;;;;1.67;1.00;;;24.30;99.90;;;;;;4935321;29;20487;-88
2023/07/31 20:56:11;;;;;;;1.23;1.10;;;24.40;99.90;;;;;;4935424;29;20447;-87
2023/07/31 20:58:38;;;;;;;1.50;1.00;;;24.40;99.90;;;;;;4935506;29;20437;-88
2023/07/31 21:01:07;;;;;;;1.30;1.10;;;24.40;99.90;;;;;;4935286;29;20449;-88
2023/07/31 21:03:34;;;;;;;1.63;1.20;;;24.40;99.80;;;;;;4935465;29;20998;-88
2023/07/31 21:06:01;;;;;;;1.40;1.10;;;24.40;99.80;;;;;;4935158;29;20472;-88
2023/07/31 21:08:28;;;;;;;1.70;1.07;;;24.40;99.80;;;;;;4935060;29;20535;-88
2023/07/31 21:10:55;;;;;;;1.10;1.00;;;24.40;99.80;;;;;;4935610;29;20449;-88
2023/07/31 21:13:21;;;;;;;1.20;1.00;;;24.40;99.80;;;;;;4935835;29;20908;-88
2023/07/31 21:15:48;;;;;;;1.20;1.10;;;24.40;99.90;;;;;;4935142;29;20542;-88
2023/07/31 21:18:16;;;;;;;1.30;1.20;;;24.40;99.90;;;;;;4935516;29;20446;-87
2023/07/31 21:20:48;;;;;;;3.10;1.07;;;24.40;99.80;;;;;;4935621;29;20543;-88
2023/07/31 21:23:15;;;;;;;1.27;0.97;;;24.40;99.80;;;;;;4938720;29;20499;-88
2023/07/31 21:25:41;;;;;;;2.27;1.20;;;24.40;99.80;;;;;;4938574;29;20457;-88
2023/07/31 21:28:10;;;;;;;1.53;1.13;;;24.40;99.80;;;;;;4938855;29;20927;-88
2023/07/31 21:30:38;;;;;;;1.70;1.00;;;24.40;99.80;;;;;;4938842;29;20459;-88
2023/07/31 21:33:04;;;;;;;1.30;1.10;;;24.40;99.90;;;;;;4939613;29;20444;-88
2023/07/31 21:35:33;;;;;;;1.43;1.10;;;24.40;99.80;;;;;;4938532;29;21052;-88
2023/07/31 21:38:00;;;;;;;1.83;1.03;;;24.40;99.70;;;;;;4938773;29;20539;-88
2023/07/31 21:40:26;;;;;;;1.30;1.00;;;24.40;99.80;;;;;;4938901;29;20882;-88
2023/07/31 21:42:54;;;;;;;1.70;1.00;;;24.30;99.60;;;;;;4938646;29;20501;-88
2023/07/31 21:45:23;;;;;;;1.30;1.10;;;24.30;99.60;;;;;;4938248;29;20466;-92
2023/07/31 21:47:49;;;;;;;1.30;1.10;;;24.30;99.70;;;;;;4938548;29;20438;-88
2023/07/31 21:50:17;;;;;;;1.10;0.97;;;24.30;99.70;;;;;;4938934;29;20480;-88
2023/07/31 21:52:45;;;;;;;1.33;1.23;;;24.30;99.60;;;;;;4938648;29;20485;-88
2023/07/31 21:55:12;;;;;;;1.50;1.20;;;24.30;99.70;;;;;;4938539;29;20526;-88
2023/07/31 21:57:39;;;;;;;1.10;1.00;;;24.30;99.90;;;;;;4938610;29;20539;-88
2023/07/31 22:00:08;;;;;;;1.10;0.90;;;24.30;99.80;;;;;;4938668;29;20448;-91
2023/07/31 22:02:36;;;;;;;1.20;0.97;;;24.30;99.80;;;;;;4938026;29;20526;-88
2023/07/31 22:05:04;;;;;;;1.10;0.90;;;24.30;99.80;;;;;;4938101;29;20979;-88
2023/07/31 22:07:30;;;;;;;1.30;1.10;;;24.30;99.90;;;;;;4938511;29;20447;-88
2023/07/31 22:09:59;;;;;;;1.40;1.20;;;24.30;99.80;;;;;;4938522;29;20447;-88
2023/07/31 22:12:26;;;;;;;1.20;1.00;;;24.30;99.90;;;;;;4937893;29;20538;-88
2023/07/31 22:14:53;;;;;;;1.60;1.33;;;24.30;99.90;;;;;;4938324;29;20443;-88
2023/07/31 22:17:20;;;;;;;1.93;0.90;;;24.30;99.90;;;;;;4938186;29;20529;-87
2023/07/31 22:19:47;;;;;;;2.07;1.40;;;24.30;99.80;;;;;;4938017;29;20439;-88
2023/07/31 22:22:13;;;;;;;1.10;0.90;;;24.30;99.90;;;;;;4938122;29;20501;-87
2023/07/31 22:24:41;;;;;;;1.03;0.90;;;24.30;99.90;;;;;;4938215;29;20439;-88
2023/07/31 22:27:09;;;;;;;1.30;1.10;;;24.30;99.60;;;;;;4937784;29;20452;-88
2023/07/31 22:29:36;;;;;;;1.60;1.20;;;24.20;99.70;;;;;;4938147;29;20817;-88
2023/07/31 22:32:03;;;;;;;1.20;1.03;;;24.30;99.70;;;;;;4937916;29;20530;-88
2023/07/31 22:34:32;;;;;;;1.20;1.00;;;24.30;99.80;;;;;;4937044;29;20444;-88
2023/07/31 22:36:59;;;;;;;1.20;1.00;;;24.20;99.70;;;;;;4937748;29;20926;-88
2023/07/31 22:39:26;;;;;;;3.63;1.17;;;24.30;99.70;;;;;;4937797;29;20483;-88
2023/07/31 22:41:52;;;;;;;1.30;1.10;;;24.20;99.70;;;;;;4937094;29;20485;-88
2023/07/31 22:44:20;;;;;;;1.60;1.40;;;24.20;99.60;;;;;;4937935;29;20529;-88
2023/07/31 22:46:47;;;;;;;1.30;1.20;;;24.20;99.60;;;;;;4937556;29;20544;-88
2023/07/31 22:49:14;;;;;;;1.70;1.10;;;24.20;99.60;;;;;;4937789;29;20804;-89
2023/07/31 22:51:41;;;;;;;1.20;1.00;;;24.20;99.60;;;;;;4937121;29;21827;-88
2023/07/31 22:54:08;;;;;;;1.10;0.90;;;24.20;99.60;;;;;;4937306;29;20531;-88
2023/07/31 22:56:34;;;;;;;1.10;1.00;;;24.20;99.60;;;;;;4937475;29;20927;-87
2023/07/31 22:59:01;;;;;;;1.50;1.20;;;24.20;99.90;;;;;;4937483;29;20450;-88
2023/07/31 23:01:29;;;;;;;1.50;1.10;;;24.20;99.60;;;;;;4937382;29;20440;-88
2023/07/31 23:03:56;;;;;;;1.10;1.00;;;24.30;99.80;;;;;;4936831;29;20576;-88
2023/07/31 23:06:23;;;;;;;1.50;1.17;;;24.30;99.80;;;;;;4937196;29;20825;-88
2023/07/31 23:08:50;;;;;;;1.13;0.97;;;24.20;99.60;;;;;;4936889;29;20448;-87
2023/07/31 23:11:17;;;;;;;1.10;1.00;;;24.20;99.60;;;;;;4937272;29;20813;-88
2023/07/31 23:13:44;;;;;;;1.00;0.80;;;24.20;99.70;;;;;;4936991;29;20447;-88
2023/07/31 23:16:10;;;;;;;1.40;1.20;;;24.20;99.60;;;;;;4937166;29;20795;-88
2023/07/31 23:18:39;;;;;;;1.00;0.80;;;24.20;99.60;;;;;;4937203;29;20510;-88
2023/07/31 23:21:05;;;;;;;1.97;1.10;;;24.20;99.70;;;;;;4936871;29;21003;-88
2023/07/31 23:23:32;;;;;;;1.43;0.97;;;24.20;99.60;;;;;;4936759;29;20486;-87
2023/07/31 23:25:59;;;;;;;1.13;0.93;;;24.20;99.50;;;;;;4937025;29;20939;-88
2023/07/31 23:28:26;;;;;;;1.40;1.13;;;24.20;99.60;;;;;;4936731;29;20932;-88
2023/07/31 23:30:52;;;;;;;2.13;1.17;;;24.20;99.60;;;;;;4937068;29;20800;-88
2023/07/31 23:33:19;;;;;;;1.20;0.80;;;24.20;99.50;;;;;;4936937;29;20511;-88
2023/07/31 23:35:47;;;;;;;1.03;0.70;;;24.20;99.40;;;;;;4936282;29;20551;-88
2023/07/31 23:38:14;;;;;;;1.30;1.13;;;24.20;99.50;;;;;;4936817;29;20535;-88
2023/07/31 23:40:41;;;;;;;1.20;1.00;;;24.20;99.50;;;;;;4936710;29;20533;-88
2023/07/31 23:43:08;;;;;;;1.10;1.00;;;24.20;99.40;;;;;;4936772;29;20487;-93
2023/07/31 23:45:34;;;;;;;1.10;0.90;;;24.20;99.50;;;;;;4936375;29;20440;-88
2023/07/31 23:48:01;;;;;;;1.30;1.00;;;24.20;99.20;;;;;;4936770;29;20446;-88
2023/07/31 23:50:28;;;;;;;1.43;1.20;;;24.20;99.30;;;;;;4937210;29;20445;-89
2023/07/31 23:52:57;;;;;;;1.20;1.10;;;24.20;99.40;;;;;;4936407;29;20493;-88
2023/07/31 23:55:24;;;;;;;1.20;1.00;;;24.20;99.60;;;;;;4936403;29;20444;-88
2023/07/31 23:57:51;;;;;;;1.20;1.10;;;24.20;99.50;;;;;;4936348;29;20443;-88
